Airfield :
LOGIN :

Register | Disclaimer

   EN    FR    IT 

 










Legend :    VFR   Marginal VFR   IFR   Intensive IFR   Very Intensive IFR
Visi :
Ceiling :
>= 8 km
>= 3000ft
5 to 8 km
1000 to 3000 ft
1500m to 5 km
500 to 1000 ft
800 to 1500m
200 to 500 ft
< 800m
< 200 ft
Symbols :   Thunderstorms  Fog  Heavy snow  Heavy precipitations  Wind > 20 kt
SIGMETs :     Misc.  Thunderstorms  Icing  Turbulence  Mountain Waves  Volcanic Ashes







- Airport Elevation : 39 ft
- IATA code : ANR


EBAW - Anvers / Antwerpen Deurne

CURRENT METAR :
  • 221550Z VRB01KT CAVOK 18/05 Q1026 NOSIG

EXPIRED METARs :
  • 221520Z 09003KT 050V140 CAVOK 18/04 Q1027 NOSIG
  • 221450Z VRB01KT CAVOK 18/04 Q1027 NOSIG
  • 221420Z 15003KT 080V210 CAVOK 18/03 Q1027 NOSIG
  • 221350Z 13003KT 090V180 CAVOK 17/03 Q1027 NOSIG
  • 221320Z 14005KT 100V190 CAVOK 17/03 Q1028 NOSIG

TAF TAF EBAW
Valid from the 22 at 15:00 until the 23 at 00:00 UTC


221420Z 2215/2224 20004KT CAVOK
BECMG 2220/2222 1500 BR BKN006
PROB30
TEMPO 2220/2224 0500 FG BKN002
No reported NOTAMs for that airfield.



MET'MAP, your aeronautical weather chart ! - Copyright ORBIFLY December 2007 - Disclaimer

ORBIFLY MET'MAP TEAM :

Programming & Development : Alexandra Zaïnal
Concept & Development : Baudouin d'Aumeries
Co-Development & Prog : Marc-Olivier Méhu
Technical & hardware support : Manuel Goepfert

Contact : metmap@orbifly.com




SOURCES & CREDITS :

   NOAA